sensor_id;sensor_type;location;lat;lon;timestamp;temperature;humidity
21950;DHT22;11139;51.284;7.226;2022-08-20T00:01:21;22.20;96.50
21950;DHT22;11139;51.284;7.226;2022-08-20T00:03:47;22.20;96.40
21950;DHT22;11139;51.284;7.226;2022-08-20T00:06:14;22.20;96.80
21950;DHT22;11139;51.284;7.226;2022-08-20T00:08:41;22.20;96.90
21950;DHT22;11139;51.284;7.226;2022-08-20T00:11:07;22.20;96.70
21950;DHT22;11139;51.284;7.226;2022-08-20T00:13:45;22.20;97.30
21950;DHT22;11139;51.284;7.226;2022-08-20T00:16:11;22.20;97.30
21950;DHT22;11139;51.284;7.226;2022-08-20T00:18:37;22.10;97.20
21950;DHT22;11139;51.284;7.226;2022-08-20T00:21:05;22.20;97.30
21950;DHT22;11139;51.284;7.226;2022-08-20T00:23:31;22.20;97.30
21950;DHT22;11139;51.284;7.226;2022-08-20T00:25:57;22.10;97.20
21950;DHT22;11139;51.284;7.226;2022-08-20T00:28:22;22.10;96.90
21950;DHT22;11139;51.284;7.226;2022-08-20T00:30:48;22.20;97.00
21950;DHT22;11139;51.284;7.226;2022-08-20T00:33:15;22.20;97.10
21950;DHT22;11139;51.284;7.226;2022-08-20T00:35:44;22.20;97.00
21950;DHT22;11139;51.284;7.226;2022-08-20T00:38:09;22.20;96.30
21950;DHT22;11139;51.284;7.226;2022-08-20T00:40:40;22.20;96.70
21950;DHT22;11139;51.284;7.226;2022-08-20T00:43:06;22.20;96.40
21950;DHT22;11139;51.284;7.226;2022-08-20T00:45:47;22.20;96.40
21950;DHT22;11139;51.284;7.226;2022-08-20T00:48:13;22.10;96.30
21950;DHT22;11139;51.284;7.226;2022-08-20T00:50:38;22.20;96.70
21950;DHT22;11139;51.284;7.226;2022-08-20T00:53:04;22.20;97.00
21950;DHT22;11139;51.284;7.226;2022-08-20T00:55:31;22.10;96.50
21950;DHT22;11139;51.284;7.226;2022-08-20T00:57:59;22.10;97.00
21950;DHT22;11139;51.284;7.226;2022-08-20T01:00:27;22.10;96.70
21950;DHT22;11139;51.284;7.226;2022-08-20T01:02:54;22.10;96.00
21950;DHT22;11139;51.284;7.226;2022-08-20T01:05:20;22.10;96.20
21950;DHT22;11139;51.284;7.226;2022-08-20T01:07:48;22.10;96.30
21950;DHT22;11139;51.284;7.226;2022-08-20T01:10:16;22.10;96.30
21950;DHT22;11139;51.284;7.226;2022-08-20T01:12:42;22.10;96.20
21950;DHT22;11139;51.284;7.226;2022-08-20T01:15:09;22.10;96.40
21950;DHT22;11139;51.284;7.226;2022-08-20T01:17:40;22.10;96.10
21950;DHT22;11139;51.284;7.226;2022-08-20T01:22:44;22.10;96.40
21950;DHT22;11139;51.284;7.226;2022-08-20T01:28:07;22.10;96.60
21950;DHT22;11139;51.284;7.226;2022-08-20T01:30:33;22.10;96.70
21950;DHT22;11139;51.284;7.226;2022-08-20T01:32:59;22.10;96.80
21950;DHT22;11139;51.284;7.226;2022-08-20T01:35:26;22.10;96.70
21950;DHT22;11139;51.284;7.226;2022-08-20T01:37:53;22.00;96.40
21950;DHT22;11139;51.284;7.226;2022-08-20T01:40:22;22.00;96.50
21950;DHT22;11139;51.284;7.226;2022-08-20T01:42:51;22.00;96.30
21950;DHT22;11139;51.284;7.226;2022-08-20T01:45:17;22.00;96.20
21950;DHT22;11139;51.284;7.226;2022-08-20T01:47:43;22.00;96.20
21950;DHT22;11139;51.284;7.226;2022-08-20T01:50:11;22.00;96.30
21950;DHT22;11139;51.284;7.226;2022-08-20T01:55:14;22.00;96.20
21950;DHT22;11139;51.284;7.226;2022-08-20T01:57:40;22.00;96.00
21950;DHT22;11139;51.284;7.226;2022-08-20T02:00:07;22.00;96.10
21950;DHT22;11139;51.284;7.226;2022-08-20T02:02:34;22.00;96.00
21950;DHT22;11139;51.284;7.226;2022-08-20T02:04:59;22.00;96.20
21950;DHT22;11139;51.284;7.226;2022-08-20T02:07:25;22.00;96.00
21950;DHT22;11139;51.284;7.226;2022-08-20T02:09:51;22.00;96.10
21950;DHT22;11139;51.284;7.226;2022-08-20T02:12:17;22.00;95.90
21950;DHT22;11139;51.284;7.226;2022-08-20T02:14:45;22.00;96.20
21950;DHT22;11139;51.284;7.226;2022-08-20T02:17:11;22.00;96.10
21950;DHT22;11139;51.284;7.226;2022-08-20T02:19:39;21.90;95.90
21950;DHT22;11139;51.284;7.226;2022-08-20T02:22:08;22.00;95.90
21950;DHT22;11139;51.284;7.226;2022-08-20T02:24:36;22.00;95.90
21950;DHT22;11139;51.284;7.226;2022-08-20T02:27:02;22.00;96.20
21950;DHT22;11139;51.284;7.226;2022-08-20T02:29:28;22.00;96.00
21950;DHT22;11139;51.284;7.226;2022-08-20T02:31:54;22.00;96.60
21950;DHT22;11139;51.284;7.226;2022-08-20T02:34:19;21.90;97.10
21950;DHT22;11139;51.284;7.226;2022-08-20T02:36:45;21.90;97.20
21950;DHT22;11139;51.284;7.226;2022-08-20T02:39:13;21.90;96.70
21950;DHT22;11139;51.284;7.226;2022-08-20T02:41:39;21.90;96.40
21950;DHT22;11139;51.284;7.226;2022-08-20T02:44:05;21.90;96.40
21950;DHT22;11139;51.284;7.226;2022-08-20T02:46:31;21.90;97.10
21950;DHT22;11139;51.284;7.226;2022-08-20T02:48:57;21.90;96.50
21950;DHT22;11139;51.284;7.226;2022-08-20T02:51:23;21.90;96.40
21950;DHT22;11139;51.284;7.226;2022-08-20T02:53:48;21.90;96.30
21950;DHT22;11139;51.284;7.226;2022-08-20T02:56:14;21.90;96.50
21950;DHT22;11139;51.284;7.226;2022-08-20T02:58:40;21.80;96.10
21950;DHT22;11139;51.284;7.226;2022-08-20T03:01:07;21.90;96.60
21950;DHT22;11139;51.284;7.226;2022-08-20T03:03:33;21.90;96.90
21950;DHT22;11139;51.284;7.226;2022-08-20T03:05:59;21.80;96.70
21950;DHT22;11139;51.284;7.226;2022-08-20T03:08:25;21.80;96.40
21950;DHT22;11139;51.284;7.226;2022-08-20T03:10:51;21.80;96.30
21950;DHT22;11139;51.284;7.226;2022-08-20T03:13:16;21.80;96.30
21950;DHT22;11139;51.284;7.226;2022-08-20T03:15:44;21.80;96.40
21950;DHT22;11139;51.284;7.226;2022-08-20T03:18:10;21.80;96.20
21950;DHT22;11139;51.284;7.226;2022-08-20T03:20:35;21.80;96.20
21950;DHT22;11139;51.284;7.226;2022-08-20T03:23:02;21.80;96.00
21950;DHT22;11139;51.284;7.226;2022-08-20T03:25:27;21.80;96.70
21950;DHT22;11139;51.284;7.226;2022-08-20T03:27:53;21.80;96.50
21950;DHT22;11139;51.284;7.226;2022-08-20T03:30:19;21.80;96.60
21950;DHT22;11139;51.284;7.226;2022-08-20T03:32:44;21.80;96.50
21950;DHT22;11139;51.284;7.226;2022-08-20T03:35:11;21.80;96.80
21950;DHT22;11139;51.284;7.226;2022-08-20T03:37:37;21.80;96.40
21950;DHT22;11139;51.284;7.226;2022-08-20T03:40:04;21.80;96.50
21950;DHT22;11139;51.284;7.226;2022-08-20T03:42:30;21.80;96.40
21950;DHT22;11139;51.284;7.226;2022-08-20T03:44:56;21.80;96.30
21950;DHT22;11139;51.284;7.226;2022-08-20T03:47:22;21.80;96.20
21950;DHT22;11139;51.284;7.226;2022-08-20T03:49:48;21.80;96.30
21950;DHT22;11139;51.284;7.226;2022-08-20T03:52:14;21.80;97.00
21950;DHT22;11139;51.284;7.226;2022-08-20T03:54:42;21.70;96.70
21950;DHT22;11139;51.284;7.226;2022-08-20T03:57:13;21.80;96.50
21950;DHT22;11139;51.284;7.226;2022-08-20T03:59:39;21.70;96.30
21950;DHT22;11139;51.284;7.226;2022-08-20T04:02:05;21.70;96.30
21950;DHT22;11139;51.284;7.226;2022-08-20T04:04:31;21.70;96.40
21950;DHT22;11139;51.284;7.226;2022-08-20T04:06:57;21.70;96.30
21950;DHT22;11139;51.284;7.226;2022-08-20T04:09:22;21.70;96.40
21950;DHT22;11139;51.284;7.226;2022-08-20T04:11:48;21.70;96.50
21950;DHT22;11139;51.284;7.226;2022-08-20T04:14:14;21.70;96.40
21950;DHT22;11139;51.284;7.226;2022-08-20T04:16:39;21.70;96.60
21950;DHT22;11139;51.284;7.226;2022-08-20T04:19:05;21.70;96.80
21950;DHT22;11139;51.284;7.226;2022-08-20T04:21:32;21.70;96.40
21950;DHT22;11139;51.284;7.226;2022-08-20T04:23:58;21.70;96.50
21950;DHT22;11139;51.284;7.226;2022-08-20T04:26:23;21.70;96.40
21950;DHT22;11139;51.284;7.226;2022-08-20T04:28:49;21.70;96.40
21950;DHT22;11139;51.284;7.226;2022-08-20T04:31:17;21.70;96.50
21950;DHT22;11139;51.284;7.226;2022-08-20T04:33:42;21.70;96.30
21950;DHT22;11139;51.284;7.226;2022-08-20T04:36:08;21.70;96.30
21950;DHT22;11139;51.284;7.226;2022-08-20T04:38:34;21.70;96.20
21950;DHT22;11139;51.284;7.226;2022-08-20T04:40:59;21.70;96.70
21950;DHT22;11139;51.284;7.226;2022-08-20T04:43:29;21.70;96.80
21950;DHT22;11139;51.284;7.226;2022-08-20T04:45:56;21.70;96.60
21950;DHT22;11139;51.284;7.226;2022-08-20T04:48:23;21.70;96.40
21950;DHT22;11139;51.284;7.226;2022-08-20T04:50:49;21.70;96.30
21950;DHT22;11139;51.284;7.226;2022-08-20T04:53:15;21.70;96.50
21950;DHT22;11139;51.284;7.226;2022-08-20T04:55:42;21.60;96.70
21950;DHT22;11139;51.284;7.226;2022-08-20T04:58:09;21.60;96.80
21950;DHT22;11139;51.284;7.226;2022-08-20T05:00:35;21.60;96.40
21950;DHT22;11139;51.284;7.226;2022-08-20T05:03:02;21.60;96.30
21950;DHT22;11139;51.284;7.226;2022-08-20T05:05:27;21.60;96.50
21950;DHT22;11139;51.284;7.226;2022-08-20T05:07:54;21.60;96.60
21950;DHT22;11139;51.284;7.226;2022-08-20T05:10:20;21.60;96.60
21950;DHT22;11139;51.284;7.226;2022-08-20T05:12:46;21.60;96.40
21950;DHT22;11139;51.284;7.226;2022-08-20T05:15:11;21.60;96.40
21950;DHT22;11139;51.284;7.226;2022-08-20T05:17:37;21.60;96.50
21950;DHT22;11139;51.284;7.226;2022-08-20T05:20:03;21.60;96.50
21950;DHT22;11139;51.284;7.226;2022-08-20T05:22:29;21.60;96.50
21950;DHT22;11139;51.284;7.226;2022-08-20T05:24:55;21.60;96.30
21950;DHT22;11139;51.284;7.226;2022-08-20T05:27:21;21.60;96.40
21950;DHT22;11139;51.284;7.226;2022-08-20T05:29:47;21.60;96.60
21950;DHT22;11139;51.284;7.226;2022-08-20T05:32:13;21.60;96.70
21950;DHT22;11139;51.284;7.226;2022-08-20T05:34:39;21.50;96.70
21950;DHT22;11139;51.284;7.226;2022-08-20T05:37:05;21.60;96.70
21950;DHT22;11139;51.284;7.226;2022-08-20T05:39:31;21.50;97.30
21950;DHT22;11139;51.284;7.226;2022-08-20T05:41:57;21.60;96.50
21950;DHT22;11139;51.284;7.226;2022-08-20T05:44:23;21.60;96.50
21950;DHT22;11139;51.284;7.226;2022-08-20T05:46:48;21.50;96.50
21950;DHT22;11139;51.284;7.226;2022-08-20T05:49:17;21.50;97.10
21950;DHT22;11139;51.284;7.226;2022-08-20T05:51:44;21.50;97.60
21950;DHT22;11139;51.284;7.226;2022-08-20T05:54:10;21.50;97.80
21950;DHT22;11139;51.284;7.226;2022-08-20T05:56:35;21.50;97.60
21950;DHT22;11139;51.284;7.226;2022-08-20T05:59:02;21.50;98.00
21950;DHT22;11139;51.284;7.226;2022-08-20T06:01:29;21.50;97.60
21950;DHT22;11139;51.284;7.226;2022-08-20T06:03:55;21.50;97.50
21950;DHT22;11139;51.284;7.226;2022-08-20T06:06:39;21.50;97.30
21950;DHT22;11139;51.284;7.226;2022-08-20T06:09:04;21.50;97.30
21950;DHT22;11139;51.284;7.226;2022-08-20T06:11:30;21.50;97.00
21950;DHT22;11139;51.284;7.226;2022-08-20T06:13:55;21.50;97.10
21950;DHT22;11139;51.284;7.226;2022-08-20T06:16:21;21.50;97.30
21950;DHT22;11139;51.284;7.226;2022-08-20T06:18:46;21.50;97.00
21950;DHT22;11139;51.284;7.226;2022-08-20T06:21:12;21.50;96.90
21950;DHT22;11139;51.284;7.226;2022-08-20T06:23:38;21.50;96.90
21950;DHT22;11139;51.284;7.226;2022-08-20T06:26:03;21.50;96.90
21950;DHT22;11139;51.284;7.226;2022-08-20T06:28:30;21.50;97.20
21950;DHT22;11139;51.284;7.226;2022-08-20T06:30:56;21.50;97.50
21950;DHT22;11139;51.284;7.226;2022-08-20T06:33:22;21.40;97.70
21950;DHT22;11139;51.284;7.226;2022-08-20T06:35:47;21.40;97.70
21950;DHT22;11139;51.284;7.226;2022-08-20T06:38:13;21.50;97.40
21950;DHT22;11139;51.284;7.226;2022-08-20T06:40:38;21.50;97.80
21950;DHT22;11139;51.284;7.226;2022-08-20T06:43:04;21.40;97.20
21950;DHT22;11139;51.284;7.226;2022-08-20T06:45:34;21.40;97.10
21950;DHT22;11139;51.284;7.226;2022-08-20T06:48:03;21.40;97.00
21950;DHT22;11139;51.284;7.226;2022-08-20T06:50:31;21.40;97.00
21950;DHT22;11139;51.284;7.226;2022-08-20T06:52:58;21.40;97.40
21950;DHT22;11139;51.284;7.226;2022-08-20T06:55:24;21.40;97.50
21950;DHT22;11139;51.284;7.226;2022-08-20T06:57:59;21.40;97.50
21950;DHT22;11139;51.284;7.226;2022-08-20T07:00:26;21.40;97.20
21950;DHT22;11139;51.284;7.226;2022-08-20T07:02:52;21.40;97.10
21950;DHT22;11139;51.284;7.226;2022-08-20T07:05:17;21.40;97.10
21950;DHT22;11139;51.284;7.226;2022-08-20T07:07:44;21.40;97.10
21950;DHT22;11139;51.284;7.226;2022-08-20T07:10:11;21.40;97.40
21950;DHT22;11139;51.284;7.226;2022-08-20T07:12:37;21.30;97.30
21950;DHT22;11139;51.284;7.226;2022-08-20T07:15:03;21.40;97.70
21950;DHT22;11139;51.284;7.226;2022-08-20T07:17:28;21.30;97.40
21950;DHT22;11139;51.284;7.226;2022-08-20T07:19:54;21.30;97.30
21950;DHT22;11139;51.284;7.226;2022-08-20T07:22:22;21.30;97.20
21950;DHT22;11139;51.284;7.226;2022-08-20T07:24:49;21.40;97.30
21950;DHT22;11139;51.284;7.226;2022-08-20T07:27:18;21.30;97.10
21950;DHT22;11139;51.284;7.226;2022-08-20T07:29:44;21.40;97.00
21950;DHT22;11139;51.284;7.226;2022-08-20T07:32:28;21.30;97.20
21950;DHT22;11139;51.284;7.226;2022-08-20T07:35:02;21.30;97.20
21950;DHT22;11139;51.284;7.226;2022-08-20T07:37:28;21.30;97.20
21950;DHT22;11139;51.284;7.226;2022-08-20T07:39:53;21.30;97.60
21950;DHT22;11139;51.284;7.226;2022-08-20T07:42:19;21.30;97.30
21950;DHT22;11139;51.284;7.226;2022-08-20T07:44:44;21.30;98.00
21950;DHT22;11139;51.284;7.226;2022-08-20T07:47:10;21.30;98.20
21950;DHT22;11139;51.284;7.226;2022-08-20T07:49:37;21.30;98.10
21950;DHT22;11139;51.284;7.226;2022-08-20T07:52:03;21.30;97.70
21950;DHT22;11139;51.284;7.226;2022-08-20T07:54:28;21.30;97.70
21950;DHT22;11139;51.284;7.226;2022-08-20T07:56:59;21.30;97.90
21950;DHT22;11139;51.284;7.226;2022-08-20T07:59:26;21.30;97.50
21950;DHT22;11139;51.284;7.226;2022-08-20T08:01:52;21.30;98.50
21950;DHT22;11139;51.284;7.226;2022-08-20T08:04:17;21.30;98.80
21950;DHT22;11139;51.284;7.226;2022-08-20T08:06:43;21.30;98.50
21950;DHT22;11139;51.284;7.226;2022-08-20T08:09:10;21.20;98.50
21950;DHT22;11139;51.284;7.226;2022-08-20T08:11:38;21.30;98.40
21950;DHT22;11139;51.284;7.226;2022-08-20T08:14:05;21.20;98.90
21950;DHT22;11139;51.284;7.226;2022-08-20T08:16:31;21.20;98.90
21950;DHT22;11139;51.284;7.226;2022-08-20T08:18:58;21.20;98.80
21950;DHT22;11139;51.284;7.226;2022-08-20T08:21:26;21.20;98.90
21950;DHT22;11139;51.284;7.226;2022-08-20T08:23:52;21.30;98.70
21950;DHT22;11139;51.284;7.226;2022-08-20T08:26:17;21.20;99.00
21950;DHT22;11139;51.284;7.226;2022-08-20T08:28:44;21.20;99.10
21950;DHT22;11139;51.284;7.226;2022-08-20T08:31:10;21.20;98.20
21950;DHT22;11139;51.284;7.226;2022-08-20T08:33:36;21.20;99.10
21950;DHT22;11139;51.284;7.226;2022-08-20T08:36:06;21.20;99.60
21950;DHT22;11139;51.284;7.226;2022-08-20T08:38:34;21.20;99.80
21950;DHT22;11139;51.284;7.226;2022-08-20T08:41:02;21.20;99.60
21950;DHT22;11139;51.284;7.226;2022-08-20T08:43:28;21.20;99.90
21950;DHT22;11139;51.284;7.226;2022-08-20T08:45:59;21.20;99.90
21950;DHT22;11139;51.284;7.226;2022-08-20T08:48:36;21.20;99.90
21950;DHT22;11139;51.284;7.226;2022-08-20T08:51:03;21.20;99.90
21950;DHT22;11139;51.284;7.226;2022-08-20T08:53:31;21.20;99.90
21950;DHT22;11139;51.284;7.226;2022-08-20T08:55:59;21.20;99.90
21950;DHT22;11139;51.284;7.226;2022-08-20T08:58:24;21.20;99.90
21950;DHT22;11139;51.284;7.226;2022-08-20T09:00:50;21.20;99.90
21950;DHT22;11139;51.284;7.226;2022-08-20T09:03:18;21.20;99.90
21950;DHT22;11139;51.284;7.226;2022-08-20T09:05:48;21.10;99.90
21950;DHT22;11139;51.284;7.226;2022-08-20T09:08:14;21.10;99.90
21950;DHT22;11139;51.284;7.226;2022-08-20T09:10:40;21.10;99.90
21950;DHT22;11139;51.284;7.226;2022-08-20T09:13:07;21.10;99.90
21950;DHT22;11139;51.284;7.226;2022-08-20T09:15:33;21.20;99.90
21950;DHT22;11139;51.284;7.226;2022-08-20T09:17:58;21.10;99.90
21950;DHT22;11139;51.284;7.226;2022-08-20T09:20:24;21.10;99.90
21950;DHT22;11139;51.284;7.226;2022-08-20T09:22:49;21.10;99.90
21950;DHT22;11139;51.284;7.226;2022-08-20T09:25:15;21.10;99.90
21950;DHT22;11139;51.284;7.226;2022-08-20T09:27:41;21.10;99.90
21950;DHT22;11139;51.284;7.226;2022-08-20T09:30:07;21.10;99.90
21950;DHT22;11139;51.284;7.226;2022-08-20T09:32:33;21.10;99.90
21950;DHT22;11139;51.284;7.226;2022-08-20T09:34:58;21.10;99.90
21950;DHT22;11139;51.284;7.226;2022-08-20T09:37:25;21.10;99.90
21950;DHT22;11139;51.284;7.226;2022-08-20T09:39:50;21.10;99.90
21950;DHT22;11139;51.284;7.226;2022-08-20T09:42:27;21.10;99.90
21950;DHT22;11139;51.284;7.226;2022-08-20T09:44:53;21.10;99.90
21950;DHT22;11139;51.284;7.226;2022-08-20T09:47:18;21.10;99.90
21950;DHT22;11139;51.284;7.226;2022-08-20T09:49:44;21.10;99.90
21950;DHT22;11139;51.284;7.226;2022-08-20T09:52:10;21.10;99.90
21950;DHT22;11139;51.284;7.226;2022-08-20T09:54:40;21.10;99.90
21950;DHT22;11139;51.284;7.226;2022-08-20T09:57:06;21.10;99.90
21950;DHT22;11139;51.284;7.226;2022-08-20T09:59:33;21.10;99.90
21950;DHT22;11139;51.284;7.226;2022-08-20T10:01:59;21.10;99.90
21950;DHT22;11139;51.284;7.226;2022-08-20T10:04:25;21.10;99.90
21950;DHT22;11139;51.284;7.226;2022-08-20T10:06:51;21.10;99.90
21950;DHT22;11139;51.284;7.226;2022-08-20T10:09:16;21.00;99.90
21950;DHT22;11139;51.284;7.226;2022-08-20T10:11:42;21.10;99.90
21950;DHT22;11139;51.284;7.226;2022-08-20T10:14:07;21.10;99.90
21950;DHT22;11139;51.284;7.226;2022-08-20T10:16:33;21.10;99.90
21950;DHT22;11139;51.284;7.226;2022-08-20T10:18:59;21.10;99.90
21950;DHT22;11139;51.284;7.226;2022-08-20T10:21:24;21.00;99.90
21950;DHT22;11139;51.284;7.226;2022-08-20T10:23:50;21.00;99.90
21950;DHT22;11139;51.284;7.226;2022-08-20T10:26:16;21.00;99.90
21950;DHT22;11139;51.284;7.226;2022-08-20T10:28:42;21.10;99.90
21950;DHT22;11139;51.284;7.226;2022-08-20T10:31:08;21.00;99.90
21950;DHT22;11139;51.284;7.226;2022-08-20T10:33:34;21.10;99.90
21950;DHT22;11139;51.284;7.226;2022-08-20T10:36:10;21.00;99.90
21950;DHT22;11139;51.284;7.226;2022-08-20T10:38:36;21.00;99.90
21950;DHT22;11139;51.284;7.226;2022-08-20T10:41:02;21.00;99.90
21950;DHT22;11139;51.284;7.226;2022-08-20T10:43:27;21.00;99.90
21950;DHT22;11139;51.284;7.226;2022-08-20T10:45:53;21.00;99.90
21950;DHT22;11139;51.284;7.226;2022-08-20T10:48:18;21.00;99.90
21950;DHT22;11139;51.284;7.226;2022-08-20T10:50:44;21.00;99.90
21950;DHT22;11139;51.284;7.226;2022-08-20T10:53:09;21.10;99.90
21950;DHT22;11139;51.284;7.226;2022-08-20T10:55:35;21.00;99.90
21950;DHT22;11139;51.284;7.226;2022-08-20T10:58:03;21.00;99.90
21950;DHT22;11139;51.284;7.226;2022-08-20T11:00:28;21.00;99.90
21950;DHT22;11139;51.284;7.226;2022-08-20T11:02:54;21.00;99.90
21950;DHT22;11139;51.284;7.226;2022-08-20T11:05:19;21.00;99.90
21950;DHT22;11139;51.284;7.226;2022-08-20T11:07:45;21.00;99.90
21950;DHT22;11139;51.284;7.226;2022-08-20T11:10:11;21.00;99.90
21950;DHT22;11139;51.284;7.226;2022-08-20T11:12:36;21.00;99.90
21950;DHT22;11139;51.284;7.226;2022-08-20T11:15:02;21.00;99.90
21950;DHT22;11139;51.284;7.226;2022-08-20T11:17:29;21.00;99.90
21950;DHT22;11139;51.284;7.226;2022-08-20T11:19:56;21.00;99.90
21950;DHT22;11139;51.284;7.226;2022-08-20T11:22:21;21.00;99.90
21950;DHT22;11139;51.284;7.226;2022-08-20T11:24:47;21.00;99.90
21950;DHT22;11139;51.284;7.226;2022-08-20T11:27:23;21.00;99.90
21950;DHT22;11139;51.284;7.226;2022-08-20T11:29:49;21.10;99.90
21950;DHT22;11139;51.284;7.226;2022-08-20T11:32:15;21.00;99.90
21950;DHT22;11139;51.284;7.226;2022-08-20T11:34:41;21.10;99.90
21950;DHT22;11139;51.284;7.226;2022-08-20T11:37:07;21.10;99.90
21950;DHT22;11139;51.284;7.226;2022-08-20T11:39:32;21.00;99.90
21950;DHT22;11139;51.284;7.226;2022-08-20T11:41:58;21.10;99.90
21950;DHT22;11139;51.284;7.226;2022-08-20T11:44:23;21.10;99.90
21950;DHT22;11139;51.284;7.226;2022-08-20T11:46:49;21.10;99.90
21950;DHT22;11139;51.284;7.226;2022-08-20T11:49:14;21.10;99.90
21950;DHT22;11139;51.284;7.226;2022-08-20T11:51:40;21.10;99.90
21950;DHT22;11139;51.284;7.226;2022-08-20T11:54:05;21.00;99.90
21950;DHT22;11139;51.284;7.226;2022-08-20T11:56:31;21.00;99.90
21950;DHT22;11139;51.284;7.226;2022-08-20T11:58:56;21.10;99.90
21950;DHT22;11139;51.284;7.226;2022-08-20T12:01:22;21.10;99.90
21950;DHT22;11139;51.284;7.226;2022-08-20T12:03:48;21.20;99.90
21950;DHT22;11139;51.284;7.226;2022-08-20T12:06:13;21.20;99.90
21950;DHT22;11139;51.284;7.226;2022-08-20T12:08:39;21.20;99.90
21950;DHT22;11139;51.284;7.226;2022-08-20T12:11:04;21.20;99.90
21950;DHT22;11139;51.284;7.226;2022-08-20T12:13:32;21.20;99.90
21950;DHT22;11139;51.284;7.226;2022-08-20T12:15:58;21.20;99.90
21950;DHT22;11139;51.284;7.226;2022-08-20T12:18:23;21.20;99.90
21950;DHT22;11139;51.284;7.226;2022-08-20T12:20:49;21.20;99.90
21950;DHT22;11139;51.284;7.226;2022-08-20T12:23:14;21.30;99.90
21950;DHT22;11139;51.284;7.226;2022-08-20T12:25:40;21.30;99.90
21950;DHT22;11139;51.284;7.226;2022-08-20T12:28:05;21.30;99.90
21950;DHT22;11139;51.284;7.226;2022-08-20T12:30:31;21.30;99.90
21950;DHT22;11139;51.284;7.226;2022-08-20T12:32:57;21.30;99.90
21950;DHT22;11139;51.284;7.226;2022-08-20T12:35:22;21.20;99.90
21950;DHT22;11139;51.284;7.226;2022-08-20T12:37:48;21.20;99.90
21950;DHT22;11139;51.284;7.226;2022-08-20T12:40:16;21.20;99.90
21950;DHT22;11139;51.284;7.226;2022-08-20T12:42:42;21.20;99.90
21950;DHT22;11139;51.284;7.226;2022-08-20T12:45:08;21.20;99.90
21950;DHT22;11139;51.284;7.226;2022-08-20T12:47:35;21.20;99.90
21950;DHT22;11139;51.284;7.226;2022-08-20T12:50:11;21.20;99.90
21950;DHT22;11139;51.284;7.226;2022-08-20T12:52:37;21.20;99.90
21950;DHT22;11139;51.284;7.226;2022-08-20T12:55:03;21.20;99.90
21950;DHT22;11139;51.284;7.226;2022-08-20T12:59:55;21.20;99.90
21950;DHT22;11139;51.284;7.226;2022-08-20T13:02:21;21.20;99.90
21950;DHT22;11139;51.284;7.226;2022-08-20T13:04:46;21.30;99.90
21950;DHT22;11139;51.284;7.226;2022-08-20T13:07:13;21.30;99.90
21950;DHT22;11139;51.284;7.226;2022-08-20T13:09:39;21.30;99.90
21950;DHT22;11139;51.284;7.226;2022-08-20T13:12:04;21.30;99.90
21950;DHT22;11139;51.284;7.226;2022-08-20T13:14:30;21.40;99.90
21950;DHT22;11139;51.284;7.226;2022-08-20T13:16:59;21.40;99.90
21950;DHT22;11139;51.284;7.226;2022-08-20T13:19:25;21.50;99.90
21950;DHT22;11139;51.284;7.226;2022-08-20T13:21:54;21.50;99.90
21950;DHT22;11139;51.284;7.226;2022-08-20T13:24:19;21.50;99.90
21950;DHT22;11139;51.284;7.226;2022-08-20T13:26:45;21.60;99.70
21950;DHT22;11139;51.284;7.226;2022-08-20T13:29:11;21.60;99.60
21950;DHT22;11139;51.284;7.226;2022-08-20T13:31:38;21.60;99.30
21950;DHT22;11139;51.284;7.226;2022-08-20T13:34:06;21.70;99.20
21950;DHT22;11139;51.284;7.226;2022-08-20T13:36:32;21.60;99.10
21950;DHT22;11139;51.284;7.226;2022-08-20T13:38:59;21.70;98.70
21950;DHT22;11139;51.284;7.226;2022-08-20T13:41:25;21.70;98.70
21950;DHT22;11139;51.284;7.226;2022-08-20T13:43:50;21.70;98.70
21950;DHT22;11139;51.284;7.226;2022-08-20T13:46:16;21.70;98.60
21950;DHT22;11139;51.284;7.226;2022-08-20T13:48:42;21.70;98.70
21950;DHT22;11139;51.284;7.226;2022-08-20T13:51:07;21.70;98.50
21950;DHT22;11139;51.284;7.226;2022-08-20T13:53:33;21.70;98.80
21950;DHT22;11139;51.284;7.226;2022-08-20T13:55:58;21.70;98.80
21950;DHT22;11139;51.284;7.226;2022-08-20T13:58:24;21.70;98.80
21950;DHT22;11139;51.284;7.226;2022-08-20T14:00:49;21.70;98.50
21950;DHT22;11139;51.284;7.226;2022-08-20T14:03:15;21.70;98.60
21950;DHT22;11139;51.284;7.226;2022-08-20T14:05:41;21.70;98.10
21950;DHT22;11139;51.284;7.226;2022-08-20T14:08:16;21.80;98.00
21950;DHT22;11139;51.284;7.226;2022-08-20T14:10:43;21.80;98.00
21950;DHT22;11139;51.284;7.226;2022-08-20T14:13:09;21.70;98.20
21950;DHT22;11139;51.284;7.226;2022-08-20T14:15:35;21.70;98.40
21950;DHT22;11139;51.284;7.226;2022-08-20T14:18:00;21.80;97.30
21950;DHT22;11139;51.284;7.226;2022-08-20T14:20:27;22.10;98.00
21950;DHT22;11139;51.284;7.226;2022-08-20T14:22:53;22.50;98.30
21950;DHT22;11139;51.284;7.226;2022-08-20T14:25:20;22.70;97.90
21950;DHT22;11139;51.284;7.226;2022-08-20T14:27:45;22.60;98.10
21950;DHT22;11139;51.284;7.226;2022-08-20T14:30:14;22.60;97.90
21950;DHT22;11139;51.284;7.226;2022-08-20T14:32:40;22.70;98.40
21950;DHT22;11139;51.284;7.226;2022-08-20T14:35:05;22.70;98.80
21950;DHT22;11139;51.284;7.226;2022-08-20T14:37:32;22.70;99.00
21950;DHT22;11139;51.284;7.226;2022-08-20T14:39:59;22.70;99.20
21950;DHT22;11139;51.284;7.226;2022-08-20T14:42:26;22.70;98.70
21950;DHT22;11139;51.284;7.226;2022-08-20T14:44:53;22.60;99.20
21950;DHT22;11139;51.284;7.226;2022-08-20T14:47:19;22.50;98.90
21950;DHT22;11139;51.284;7.226;2022-08-20T14:49:46;22.60;99.70
21950;DHT22;11139;51.284;7.226;2022-08-20T14:52:12;22.50;99.50
21950;DHT22;11139;51.284;7.226;2022-08-20T14:54:38;22.60;99.90
21950;DHT22;11139;51.284;7.226;2022-08-20T14:57:04;22.60;99.40
21950;DHT22;11139;51.284;7.226;2022-08-20T14:59:30;22.50;99.90
21950;DHT22;11139;51.284;7.226;2022-08-20T15:01:55;22.50;99.90
21950;DHT22;11139;51.284;7.226;2022-08-20T15:04:21;22.40;99.90
21950;DHT22;11139;51.284;7.226;2022-08-20T15:06:47;22.40;99.90
21950;DHT22;11139;51.284;7.226;2022-08-20T15:09:12;22.40;99.90
21950;DHT22;11139;51.284;7.226;2022-08-20T15:11:38;22.40;99.90
21950;DHT22;11139;51.284;7.226;2022-08-20T15:14:05;22.40;99.90
21950;DHT22;11139;51.284;7.226;2022-08-20T15:16:31;22.30;99.90
21950;DHT22;11139;51.284;7.226;2022-08-20T15:18:56;22.40;99.90
21950;DHT22;11139;51.284;7.226;2022-08-20T15:21:22;22.40;99.90
21950;DHT22;11139;51.284;7.226;2022-08-20T15:23:47;22.40;99.90
21950;DHT22;11139;51.284;7.226;2022-08-20T15:26:13;22.40;99.90
21950;DHT22;11139;51.284;7.226;2022-08-20T15:28:39;22.40;99.90
21950;DHT22;11139;51.284;7.226;2022-08-20T15:31:08;22.30;99.90
21950;DHT22;11139;51.284;7.226;2022-08-20T15:33:34;22.30;99.90
21950;DHT22;11139;51.284;7.226;2022-08-20T15:35:59;22.40;99.90